Accueil
METAR-TAF:

METAR-TAF

Aéroports :

Aéroport de Newquay Cornouailles

Newquay Cornwall, Angleterre

latitude: 50-26N, longitude: 005-00W, altitude: 119 m

Observation

Le bulletin a été fait il y a 13 minutes, à 19:50 UTC
Vent 16 kt de sud-est
Température 9°C
Humidité 93%
Pression 1000 hPa
Visibilité 10 km ou plus
Nuages fragmentés à une hauteur de 1000 ft

METAR: EGHQ 201950Z 13016KT 9999 BKN010 09/08 Q1000

Heure: 20:03 (20:03 UTC)

Prévision

Le bulletin a été fait il y a 3 heures et 5 minutes, à 16:58 UTC
Prévision valable du 20 à 18 UTC au 21 à 03 UTC
Vent 12 kt de sud/sud-est
Visibilité 10 km ou plus
Nuages épars à une hauteur de 3000 ft
Temporairement
du 20 à 18 UTC au 21 à 03 UTC
Vent 20 kt de sud-est avec des rafales jusqu'à 30 kt
Visibilité: 6000 m
Nuages fragmentés à une hauteur de 800 ft
pluie

TAF: EGHQ 201658Z 2018/2103 15012KT 9999 SCT030 TEMPO 2018/2103 14020G30KT 6000 RA BKN008

Observations et prévisions météorologiques de plus de 4000 aéroports (messages METAR et TAF).

Les stations disponibles sont représentées par des disques jaunes et rouges sur la carte.

Passer la souris dessus pour voir le nom de la station.

Cliquer dessus pour voir les observations et prévisions météorologiques.

Pour changer de carte: cliquez sur les boutons verts avec une croix noire pour zoomer, sur le bouton vert avec un tiret pour effectuer un zoom arrière, ou sur les flèches vertes pour les cartes adjacentes.


METAR-TAF: